Latest Coastal Weather Observations for Kalumburu

IDW60701

Issued at 2:25 pm WST Tuesday 23 September 2014 (issued every 10 minutes, with the page automatically refreshed every 10 minutes)

About coastal observations | Map of coastal stations | Coastal observations for WA | Marine services | Other Formats
Station Details ID: 001019 Name: KALUMBURU Lat: -14.30 Lon: 126.65 Height: 23.0 m
Data from the previous 72 hours. | See also: Recent months at Kalumburu
Date/Time
WST
Temp

°C
Wind Pressure Rain
since 9am
mm
Weather Cloud Vis
km
Sea
Height
m
Swell
Dir
 
Speed
knots
Gust
knots
hPa Trend Height
m
Period
s
Dir
23/02:00pm 33.5 N 11 16 1009.7 - 0.0 - - - - - - -
23/01:30pm 32.8 N 12 16 1009.9 - 0.0 - - - - - - -
23/01:00pm 33.2 N 12 17 1010.3 - 0.0 - - - - - - -
23/12:30pm 34.6 N 11 15 1010.6 - 0.0 - - - - - - -
23/12:00pm 34.0 N 11 16 1011.2 - 0.0 - - - - - - -
23/11:30am 34.2 NNW 7 12 1011.6 - 0.0 - - - - - - -
23/11:00am 33.2 N 9 14 1012.2 - 0.0 - - - - - - -
23/10:30am 34.0 N 8 13 1012.5 - 0.0 - - - - - - -
23/10:00am 32.8 NNW 5 9 1012.9 - 0.0 - - - - - - -
23/09:30am 32.1 W 5 8 1013.4 - 0.0 - - - - - - -
23/09:00am 31.2 WNW 4 7 1013.6 - 0.0 - - - - - - -
23/08:30am 29.8 WNW 4 7 1013.8 - 0.0 - - - - - - -
23/08:00am 28.9 SW 4 7 1013.7 - 0.0 - - - - - - -
23/07:30am 27.6 W 4 7 1013.5 - 0.0 - - - - - - -
23/07:00am 26.8 WNW 4 6 1013.4 - 0.0 - - - - - - -
23/06:30am 25.4 CALM 0 0 1013.1 - 0.0 - - - - - - -
23/06:00am 22.6 CALM 0 0 1012.9 - 0.0 - - - - - - -
23/05:30am 22.2 CALM 0 0 1013.0 - 0.0 - - - - - - -
23/05:00am 22.5 CALM 0 0 1012.8 - 0.0 - - - - - - -
23/04:30am 22.0 CALM 0 0 1012.4 - 0.0 - - - - - - -
23/04:00am 22.3 CALM 0 0 1012.4 - 0.0 - - - - - - -
23/03:30am 23.0 S 3 4 1012.3 - 0.0 - - - - - - -
23/03:00am 21.7 CALM 0 0 1011.6 - 0.0 - - - - - - -
23/02:30am 22.2 CALM 0 0 1011.5 - 0.0 - - - - - - -
23/02:00am 21.9 CALM 0 0 1011.8 - 0.0 - - - - - - -
23/01:30am 22.0 CALM 0 0 1011.9 - 0.0 - - - - - - -
23/01:00am 21.9 CALM 0 0 1012.2 - 0.0 - - - - - - -
23/12:30am 22.2 NW 1 4 1012.4 - 0.0 - - - - - - -
23/12:00am 23.1 NNW 2 4 1012.7 - 0.0 - - - - - - -
 
Date/Time
WST
Temp

°C
Wind Pressure Rain
since 9am
mm
Weather Cloud Vis
km
Sea
Height
m
Swell
Dir
 
Speed
knots
Gust
knots
hPa Trend Height
m
Period
s
Dir
22/11:30pm 23.1 CALM 0 0 1013.1 - 0.0 - - - - - - -
22/11:00pm 23.4 CALM 0 0 1013.3 - 0.0 - - - - - - -
22/10:30pm 24.7 NW 1 3 1013.6 - 0.0 - - - - - - -
22/10:00pm 25.9 WNW 3 5 1013.7 - 0.0 - - - - - - -
22/09:30pm 25.7 NW 4 5 1013.9 - 0.0 - - - - - - -
22/09:00pm 26.1 NNW 5 6 1013.7 - 0.0 - - - - - - -
22/08:30pm 26.4 NW 5 8 1013.5 - 0.0 - - - - - - -
22/08:00pm 26.8 NNW 6 9 1013.3 - 0.0 - - - - - - -
22/07:30pm 27.1 N 7 9 1013.0 - 0.0 - - - - - - -
22/07:00pm 27.5 N 7 11 1012.6 - 0.0 - - - - - - -
22/06:30pm 28.2 N 7 9 1012.3 - 0.0 - - - - - - -
22/06:00pm 29.2 N 7 10 1011.8 - 0.0 - - - - - - -
22/05:30pm 30.0 NNW 7 10 1011.5 - 0.0 - - - - - - -
22/05:00pm 31.1 NNW 9 13 1011.1 - 0.0 - - - - - - -
22/04:30pm 32.4 NW 10 16 1010.7 - 0.0 - - - - - - -
22/04:00pm 32.9 NNW 11 17 1010.2 - 0.0 - - - - - - -
22/03:30pm 33.1 NNW 12 17 1010.2 - 0.0 - - - - - - -
22/03:00pm 32.8 N 13 17 1010.2 - 0.0 - - - - - - -
22/02:30pm 33.2 NNW 13 19 1010.3 - 0.0 - - - - - - -
22/02:00pm 33.1 N 12 18 1010.7 - 0.0 - - - - - - -
22/01:30pm 33.4 NNW 11 17 1011.1 - 0.0 - - - - - - -
22/01:00pm 32.1 NNW 12 17 1011.5 - 0.0 - - - - - - -
22/12:30pm 33.4 N 12 17 1011.8 - 0.0 - - - - - - -
22/12:00pm 33.8 WNW 7 9 1012.3 - 0.0 - - - - - - -
22/11:30am 34.0 NW 6 9 1012.8 - 0.0 - - - - - - -
22/11:00am 34.0 S 4 9 1013.5 - 0.0 - - - - - - -
22/10:30am 33.9 ESE 4 5 1014.2 - 0.0 - - - - - - -
22/10:00am 32.7 SW 4 9 1014.6 - 0.0 - - - - - - -
22/09:30am 32.0 SSE 4 7 1014.8 - 0.0 - - - - - - -
22/09:00am 31.3 S 7 10 1014.9 - 0.0 - - - - - - -
22/08:30am 30.1 SSW 4 6 1015.0 - 0.0 - - - - - - -
22/08:00am 29.0 SSW 4 6 1015.1 - 0.0 - - - - - - -
22/07:30am 27.4 ESE 4 6 1015.0 - 0.0 - - - - - - -
22/07:00am 24.9 E 3 5 1014.9 - 0.0 - - - - - - -
22/06:30am 21.2 CALM 0 0 1014.2 - 0.0 - - - - - - -
22/06:00am 17.7 CALM 0 0 1014.0 - 0.0 - - - - - - -
22/05:30am 16.8 CALM 0 0 1013.6 - 0.0 - - - - - - -
22/05:00am 17.0 CALM 0 0 1013.3 - 0.0 - - - - - - -
22/04:30am 17.5 CALM 0 0 1013.1 - 0.0 - - - - - - -
22/04:00am 17.6 CALM 0 0 1012.6 - 0.0 - - - - - - -
22/03:30am 17.4 S 2 4 1012.2 - 0.0 - - - - - - -
22/03:00am 17.7 CALM 0 0 1011.9 - 0.0 - - - - - - -
22/02:30am 17.7 CALM 0 0 1012.0 - 0.0 - - - - - - -
22/02:00am 17.9 CALM 0 0 1012.1 - 0.0 - - - - - - -
22/01:30am 18.1 CALM 0 0 1012.3 - 0.0 - - - - - - -
22/01:00am 18.5 CALM 0 0 1012.4 - 0.0 - - - - - - -
22/12:30am 18.8 CALM 0 0 1012.7 - 0.0 - - - - - - -
22/12:00am 19.1 CALM 0 0 1013.1 - 0.0 - - - - - - -
 
Date/Time
WST
Temp

°C
Wind Pressure Rain
since 9am
mm
Weather Cloud Vis
km
Sea
Height
m
Swell
Dir
 
Speed
knots
Gust
knots
hPa Trend Height
m
Period
s
Dir
21/11:30pm 19.3 CALM 0 0 1013.4 - 0.0 - - - - - - -
21/11:00pm 19.7 CALM 0 0 1013.7 - 0.0 - - - - - - -
21/10:30pm 20.4 CALM 0 0 1014.0 - 0.0 - - - - - - -
21/10:00pm 21.0 SE 3 4 1014.3 - 0.0 - - - - - - -
21/09:30pm 21.0 WNW 1 4 1014.0 - 0.0 - - - - - - -
21/09:00pm 22.4 CALM 0 0 1014.1 - 0.0 - - - - - - -
21/08:30pm 23.9 NW 1 3 1013.9 - 0.0 - - - - - - -
21/08:00pm 26.7 WNW 4 5 1013.8 - 0.0 - - - - - - -
21/07:30pm 27.3 WNW 3 4 1013.6 - 0.0 - - - - - - -
21/07:00pm 28.8 W 5 7 1013.2 - 0.0 - - - - - - -
21/06:30pm 29.6 NW 6 8 1012.8 - 0.0 - - - - - - -
21/06:00pm 30.4 NW 6 10 1012.4 - 0.0 - - - - - - -
21/05:30pm 31.3 WNW 7 13 1011.9 - 0.0 - - - - - - -
21/05:00pm 32.3 NW 10 16 1011.4 - 0.0 - - - - - - -
21/04:30pm 33.4 NW 10 14 1011.0 - 0.0 - - - - - - -
21/04:00pm 34.6 NW 10 15 1010.8 - 0.0 - - - - - - -
21/03:30pm 35.1 NW 11 17 1010.5 - 0.0 - - - - - - -
21/03:00pm 36.4 NW 8 11 1010.6 - 0.0 - - - - - - -
21/02:30pm 35.8 N 10 15 1010.6 - 0.0 - - - - - - -
21/02:00pm 35.7 NNW 10 13 1010.8 - 0.0 - - - - - - -
21/01:30pm 36.1 NNW 9 14 1011.0 - 0.0 - - - - - - -
21/01:00pm 36.0 NNW 9 13 1011.5 - 0.0 - - - - - - -
21/12:30pm 36.1 WNW 8 12 1012.1 - 0.0 - - - - - - -
21/12:00pm 35.7 NW 10 18 1012.8 - 0.0 - - - - - - -
21/11:30am 36.0 WNW 7 10 1013.2 - 0.0 - - - - - - -
21/11:00am 35.1 NW 7 12 1013.7 - 0.0 - - - - - - -
21/10:30am 35.2 W 5 9 1014.4 - 0.0 - - - - - - -
21/10:00am 33.9 WNW 7 11 1014.8 - 0.0 - - - - - - -
21/09:30am 33.3 NW 7 12 1015.2 - 0.0 - - - - - - -
21/09:00am 31.6 NNW 5 10 1015.4 - 0.0 - - - - - - -
21/08:30am 30.1 CALM 0 0 1015.7 - 0.0 - - - - - - -
21/08:00am 28.1 W 3 5 1015.8 - 0.0 - - - - - - -
21/07:30am 26.0 S 1 3 1015.6 - 0.0 - - - - - - -
21/07:00am 24.1 CALM 0 0 1015.3 - 0.0 - - - - - - -
21/06:30am 21.1 NW 1 4 1015.0 - 0.0 - - - - - - -
21/06:00am 18.2 CALM 0 2 1014.6 - 0.0 - - - - - - -
21/05:30am 17.0 SSE 3 4 1014.2 - 0.0 - - - - - - -
21/05:00am 18.2 N 1 4 1013.8 - 0.0 - - - - - - -
21/04:30am 17.7 E 1 4 1013.3 - 0.0 - - - - - - -
21/04:00am 18.7 SSW 4 6 1013.1 - 0.0 - - - - - - -
21/03:30am 17.0 SE 1 4 1012.9 - 0.0 - - - - - - -
21/03:00am 17.1 CALM 0 0 1012.7 - 0.0 - - - - - - -
21/02:30am 17.5 CALM 0 0 1012.8 - 0.0 - - - - - - -
21/02:00am 17.7 CALM 0 0 1013.0 - 0.0 - - - - - - -
21/01:30am 17.8 CALM 0 0 1013.2 - 0.0 - - - - - - -
21/01:00am 18.3 CALM 0 0 1013.4 - 0.0 - - - - - - -
21/12:30am 18.6 SSE 1 3 1013.5 - 0.0 - - - - - - -
21/12:00am 18.6 E 2 3 1013.4 - 0.0 - - - - - - -
 
Date/Time
WST
Temp

°C
Wind Pressure Rain
since 9am
mm
Weather Cloud Vis
km
Sea
Height
m
Swell
Dir
 
Speed
knots
Gust
knots
hPa Trend Height
m
Period
s
Dir
20/11:30pm 19.2 CALM 0 0 1013.5 - 0.0 - - - - - - -
20/11:00pm 19.6 CALM 0 0 1013.8 - 0.0 - - - - - - -
20/10:30pm 19.9 CALM 0 0 1013.8 - 0.0 - - - - - - -
20/10:00pm 20.2 CALM 0 0 1014.1 - 0.0 - - - - - - -
20/09:30pm 20.9 SW 1 3 1014.0 - 0.0 - - - - - - -
20/09:00pm 22.1 CALM 0 0 1014.0 - 0.0 - - - - - - -
20/08:30pm 22.6 NE 1 3 1013.8 - 0.0 - - - - - - -
20/08:00pm 23.0 NE 3 4 1013.7 - 0.0 - - - - - - -
20/07:30pm 24.2 CALM 0 3 1013.4 - 0.0 - - - - - - -
20/07:00pm 25.2 CALM 0 0 1013.0 - 0.0 - - - - - - -
20/06:30pm 27.5 NNW 1 4 1012.6 - 0.0 - - - - - - -
20/06:00pm 30.4 NW 6 9 1012.0 - 0.0 - - - - - - -
20/05:30pm 31.2 N 6 8 1011.5 - 0.0 - - - - - - -
20/05:00pm 32.4 NNW 8 12 1011.0 - 0.0 - - - - - - -
20/04:30pm 33.8 N 8 11 1010.6 - 0.0 - - - - - - -
20/04:00pm 34.2 NNW 9 12 1010.3 - 0.0 - - - - - - -
20/03:30pm 34.7 N 10 15 1010.1 - 0.0 - - - - - - -
20/03:00pm 35.2 N 10 16 1010.1 - 0.0 - - - - - - -
20/02:30pm 34.7 NNW 11 17 1010.2 - 0.0 - - - - - - -

Other Formats:

Comma delimited format used in spreadsheet applications
http://www.bom.gov.au/fwo/IDW60701/IDW60701.94100.axf

JavaScript Object Notation format (JSON) in row-major order
http://www.bom.gov.au/fwo/IDW60701/IDW60701.94100.json